createdAt,value
2023-04-23T00:01:58.791Z,99617.97
2023-04-23T00:04:35.069Z,99625.22
2023-04-23T00:07:06.927Z,99622.94
2023-04-23T00:09:34.808Z,99620.91
2023-04-23T00:12:02.886Z,99614.88
2023-04-23T00:14:30.787Z,99622.44
2023-04-23T00:16:58.503Z,99617.97
2023-04-23T00:19:26.120Z,99617.34
2023-04-23T00:21:53.583Z,99613.78
2023-04-23T00:24:21.288Z,99611.63
2023-04-23T00:26:48.710Z,99618.09
2023-04-23T00:29:16.313Z,99613.00
2023-04-23T00:31:43.733Z,99611.44
2023-04-23T00:34:11.360Z,99613.44
2023-04-23T00:36:39.120Z,99613.56
2023-04-23T00:39:06.699Z,99611.25
2023-04-23T00:41:35.142Z,99620.19
2023-04-23T00:44:03.245Z,99624.25
2023-04-23T00:46:30.870Z,99625.56
2023-04-23T00:48:59.260Z,99627.13
2023-04-23T00:51:26.887Z,99632.84
2023-04-23T00:53:54.526Z,99632.38
2023-04-23T00:56:24.002Z,99641.19
2023-04-23T00:58:55.304Z,99634.81
2023-04-23T01:01:23.586Z,99638.78
2023-04-23T01:03:53.348Z,99635.34
2023-04-23T01:06:22.021Z,99637.31
2023-04-23T01:08:49.521Z,99635.00
2023-04-23T01:11:17.528Z,99630.56
2023-04-23T01:13:45.087Z,99630.09
2023-04-23T01:16:13.379Z,99630.53
2023-04-23T01:18:41.784Z,99625.31
2023-04-23T01:21:13.215Z,99625.16
2023-04-23T01:23:40.893Z,99624.69
2023-04-23T01:26:08.722Z,99624.69
2023-04-23T01:28:37.696Z,99622.63
2023-04-23T01:31:05.488Z,99623.13
2023-04-23T01:33:36.272Z,99627.16
2023-04-23T01:36:04.213Z,99625.59
2023-04-23T01:38:32.233Z,99633.16
2023-04-23T01:40:59.688Z,99634.19
2023-04-23T01:43:28.100Z,99644.47
2023-04-23T01:45:55.963Z,99634.16
2023-04-23T01:48:24.320Z,99646.19
2023-04-23T01:50:52.755Z,99638.28
2023-04-23T01:53:21.501Z,99636.00
2023-04-23T01:55:50.033Z,99643.41
2023-04-23T01:58:17.522Z,99633.41
2023-04-23T02:00:45.065Z,99648.44
2023-04-23T02:03:12.835Z,99645.81
2023-04-23T02:05:42.129Z,99640.25
2023-04-23T02:08:10.558Z,99645.06
2023-04-23T02:10:38.406Z,99647.81
2023-04-23T02:13:05.955Z,99655.41
2023-04-23T02:15:33.923Z,99642.09
2023-04-23T02:18:01.437Z,99638.69
2023-04-23T02:20:29.047Z,99648.47
2023-04-23T02:22:56.812Z,99641.59
2023-04-23T02:25:24.402Z,99645.66
2023-04-23T02:27:51.883Z,99641.47
2023-04-23T02:30:19.442Z,99650.38
2023-04-23T02:32:47.014Z,99645.63
2023-04-23T02:35:14.622Z,99652.69
2023-04-23T02:37:42.077Z,99657.19
2023-04-23T02:40:10.451Z,99658.72
2023-04-23T02:42:38.422Z,99657.66
2023-04-23T02:45:07.139Z,99657.66
2023-04-23T02:47:34.673Z,99661.03
2023-04-23T02:50:05.909Z,99666.16
2023-04-23T02:52:34.442Z,99662.59
2023-04-23T02:55:03.765Z,99664.78
2023-04-23T02:57:31.457Z,99666.34
2023-04-23T02:59:58.952Z,99669.75
2023-04-23T03:02:34.038Z,99669.56
2023-04-23T03:05:01.693Z,99673.81
2023-04-23T03:07:29.215Z,99671.53
2023-04-23T03:09:56.769Z,99670.25
2023-04-23T03:12:24.333Z,99670.38
2023-04-23T03:14:51.751Z,99676.47
2023-04-23T03:17:19.360Z,99674.56
2023-04-23T03:19:46.848Z,99668.06
2023-04-23T03:22:14.595Z,99677.13
2023-04-23T03:24:42.855Z,99677.88
2023-04-23T03:27:10.499Z,99682.25
2023-04-23T03:29:37.978Z,99674.75
2023-04-23T03:32:06.973Z,99678.88
2023-04-23T03:34:34.656Z,99678.94
2023-04-23T03:37:02.801Z,99681.91
2023-04-23T03:39:33.297Z,99682.59
2023-04-23T03:42:02.031Z,99680.78
2023-04-23T03:44:31.338Z,99687.94
2023-04-23T03:46:59.342Z,99682.50
2023-04-23T03:49:29.760Z,99687.47
2023-04-23T03:51:57.320Z,99688.59
2023-04-23T03:54:26.578Z,99685.78
2023-04-23T03:57:05.787Z,99694.06
2023-04-23T03:59:39.942Z,99688.22
2023-04-23T04:02:08.991Z,99692.69
2023-04-23T04:04:36.864Z,99699.97
2023-04-23T04:07:05.677Z,99690.78
2023-04-23T04:09:33.158Z,99703.53
2023-04-23T04:12:02.777Z,99706.34
2023-04-23T04:14:32.568Z,99703.66
2023-04-23T04:17:00.248Z,99709.16
2023-04-23T04:19:28.292Z,99710.16
2023-04-23T04:21:56.213Z,99711.91
2023-04-23T04:24:26.265Z,99709.94
2023-04-23T04:26:54.117Z,99715.00
2023-04-23T04:29:21.611Z,99708.03
2023-04-23T04:31:49.291Z,99712.44
2023-04-23T04:34:17.976Z,99719.94
2023-04-23T04:36:45.817Z,99728.94
2023-04-23T04:39:14.765Z,99730.28
2023-04-23T04:41:42.902Z,99734.13
2023-04-23T04:44:10.434Z,99732.69
2023-04-23T04:46:40.637Z,99731.84
2023-04-23T04:49:10.952Z,99741.63
2023-04-23T04:51:40.278Z,99735.69
2023-04-23T04:54:08.980Z,99743.25
2023-04-23T04:56:36.474Z,99745.00
2023-04-23T04:59:04.219Z,99744.13
2023-04-23T05:01:33.390Z,99751.69
2023-04-23T05:04:01.286Z,99756.53
2023-04-23T05:06:28.960Z,99748.84
2023-04-23T05:08:56.435Z,99755.50
2023-04-23T05:11:23.860Z,99752.63
2023-04-23T05:13:52.235Z,99751.88
2023-04-23T05:16:20.243Z,99759.91
2023-04-23T05:18:47.727Z,99760.03
2023-04-23T05:21:16.205Z,99756.75
2023-04-23T05:23:44.142Z,99753.47
2023-04-23T05:26:11.727Z,99762.72
2023-04-23T05:28:39.278Z,99767.59
2023-04-23T05:31:06.890Z,99763.84
2023-04-23T05:33:46.333Z,99770.06
2023-04-23T05:36:16.671Z,99767.50
2023-04-23T05:38:44.113Z,99767.44
2023-04-23T05:41:11.778Z,99774.13
2023-04-23T05:43:42.055Z,99776.22
2023-04-23T05:46:09.743Z,99768.50
2023-04-23T05:48:39.880Z,99779.91
2023-04-23T05:51:07.804Z,99780.84
2023-04-23T05:53:35.773Z,99781.50
2023-04-23T05:56:03.287Z,99785.03
2023-04-23T05:58:30.713Z,99783.81
2023-04-23T06:00:59.035Z,99787.88
2023-04-23T06:03:27.196Z,99790.19
2023-04-23T06:05:54.994Z,99784.84
2023-04-23T06:08:23.942Z,99777.50
2023-04-23T06:10:52.494Z,99786.44
2023-04-23T06:13:20.053Z,99787.56
2023-04-23T06:15:47.561Z,99789.84
2023-04-23T06:18:15.107Z,99786.88
2023-04-23T06:20:42.872Z,99780.34
2023-04-23T06:23:10.848Z,99782.38
2023-04-23T06:25:38.278Z,99788.81
2023-04-23T06:28:05.850Z,99790.38
2023-04-23T06:30:42.412Z,99786.88
2023-04-23T06:33:10.920Z,99785.22
2023-04-23T06:35:38.433Z,99790.50
2023-04-23T06:38:06.335Z,99786.59
2023-04-23T06:40:34.557Z,99791.13
2023-04-23T06:43:04.553Z,99794.31
2023-04-23T06:45:52.318Z,99800.97
2023-04-23T06:48:22.140Z,99793.78
2023-04-23T06:50:50.585Z,99795.41
2023-04-23T06:53:19.105Z,99788.03
2023-04-23T06:55:46.789Z,99796.97
2023-04-23T06:58:14.885Z,99790.78
2023-04-23T07:00:43.517Z,99787.59
2023-04-23T07:03:11.730Z,99789.06
2023-04-23T07:05:39.412Z,99791.78
2023-04-23T07:08:07.086Z,99797.34
2023-04-23T07:10:34.599Z,99793.16
2023-04-23T07:13:02.164Z,99794.72
2023-04-23T07:15:29.723Z,99794.09
2023-04-23T07:17:57.392Z,99800.78
2023-04-23T07:20:24.897Z,99798.38
2023-04-23T07:22:53.017Z,99800.66
2023-04-23T07:25:22.596Z,99795.75
2023-04-23T07:27:50.657Z,99796.06
2023-04-23T07:30:19.193Z,99790.63
2023-04-23T07:32:47.254Z,99786.78
2023-04-23T07:35:15.083Z,99791.75
2023-04-23T07:37:42.714Z,99793.13
2023-04-23T07:40:10.745Z,99794.66
2023-04-23T07:42:38.238Z,99791.66
2023-04-23T07:45:06.981Z,99789.63
2023-04-23T07:47:34.566Z,99797.69
2023-04-23T07:50:02.106Z,99790.75
2023-04-23T07:52:29.666Z,99792.78
2023-04-23T07:54:57.103Z,99797.59
2023-04-23T07:57:24.606Z,99785.34
2023-04-23T07:59:52.947Z,99799.47
2023-04-23T08:02:23.850Z,99795.56
2023-04-23T08:04:53.746Z,99788.41
2023-04-23T08:07:21.515Z,99790.28
2023-04-23T08:09:49.134Z,99791.19
2023-04-23T08:12:17.463Z,99781.44
2023-04-23T08:14:47.409Z,99788.25
2023-04-23T08:17:17.809Z,99790.03
2023-04-23T08:19:45.300Z,99779.84
2023-04-23T08:22:13.403Z,99777.53
2023-04-23T08:24:41.243Z,99781.53
2023-04-23T08:27:08.830Z,99778.84
2023-04-23T08:29:36.444Z,99778.72
2023-04-23T08:32:07.113Z,99778.16
2023-04-23T08:34:35.881Z,99780.63
2023-04-23T08:37:04.648Z,99778.91
2023-04-23T08:39:33.230Z,99766.59
2023-04-23T08:42:16.289Z,99772.69
2023-04-23T08:44:43.974Z,99770.72
2023-04-23T08:47:13.539Z,99765.97
2023-04-23T08:49:43.598Z,99763.16
2023-04-23T08:52:23.275Z,99768.22
2023-04-23T08:54:57.475Z,99763.03
2023-04-23T08:57:26.188Z,99755.91
2023-04-23T08:59:55.321Z,99764.09
2023-04-23T09:02:25.886Z,99763.03
2023-04-23T09:04:56.160Z,99750.97
2023-04-23T09:07:24.083Z,99759.97
2023-04-23T09:09:52.546Z,99748.09
2023-04-23T09:12:21.864Z,99744.06
2023-04-23T09:14:51.541Z,99747.34
2023-04-23T09:17:21.750Z,99749.44
2023-04-23T09:19:55.136Z,99740.72
2023-04-23T09:22:52.536Z,99744.78
2023-04-23T09:25:22.542Z,99740.03
2023-04-23T09:27:54.182Z,99730.00
2023-04-23T09:30:23.431Z,99738.34
2023-04-23T09:32:52.818Z,99735.81
2023-04-23T09:35:20.853Z,99739.16
2023-04-23T09:37:53.365Z,99731.69
2023-04-23T09:40:25.073Z,99736.41
2023-04-23T09:42:56.358Z,99730.81
2023-04-23T09:45:27.654Z,99717.75
2023-04-23T09:48:16.078Z,99719.88
2023-04-23T09:50:43.704Z,99723.06
2023-04-23T09:53:11.366Z,99720.44
2023-04-23T09:55:41.832Z,99724.94
2023-04-23T09:58:16.610Z,99718.78
2023-04-23T10:00:44.230Z,99714.19
2023-04-23T10:03:12.447Z,99704.53
2023-04-23T10:08:16.556Z,99707.47
2023-04-23T10:11:02.449Z,99699.38
2023-04-23T10:13:36.879Z,99692.97
2023-04-23T10:16:20.714Z,99693.72
2023-04-23T10:18:53.134Z,99687.31
2023-04-23T10:21:21.187Z,99695.97
2023-04-23T10:23:53.554Z,99688.22
2023-04-23T10:26:24.838Z,99677.34
2023-04-23T10:28:56.018Z,99672.22
2023-04-23T10:31:24.331Z,99676.13
2023-04-23T10:33:59.142Z,99672.13
2023-04-23T10:36:28.313Z,99667.94
2023-04-23T10:39:00.354Z,99668.06
2023-04-23T10:41:39.778Z,99660.09
2023-04-23T10:44:15.867Z,99658.31
2023-04-23T10:46:57.436Z,99662.25
2023-04-23T10:49:31.356Z,99652.34
2023-04-23T10:52:19.685Z,99652.38
2023-04-23T10:54:57.225Z,99645.91
2023-04-23T10:57:25.401Z,99636.75
2023-04-23T10:59:56.365Z,99641.69
2023-04-23T11:02:26.299Z,99633.69
2023-04-23T11:04:59.083Z,99636.78
2023-04-23T11:07:34.196Z,99631.78
2023-04-23T11:10:15.417Z,99628.75
2023-04-23T11:12:46.456Z,99626.81
2023-04-23T11:15:16.619Z,99616.16
2023-04-23T11:17:48.518Z,99620.34
2023-04-23T11:20:25.093Z,99623.78
2023-04-23T11:22:53.636Z,99612.69
2023-04-23T11:25:26.364Z,99624.13
2023-04-23T11:27:56.763Z,99618.78
2023-04-23T11:30:26.166Z,99616.50
2023-04-23T11:32:56.850Z,99608.13
2023-04-23T11:35:30.614Z,99605.00
2023-04-23T11:37:58.276Z,99610.31
2023-04-23T11:40:26.511Z,99606.75
2023-04-23T11:42:55.688Z,99608.03
2023-04-23T11:45:27.600Z,99599.28
2023-04-23T11:47:57.261Z,99608.13
2023-04-23T11:50:30.704Z,99598.56
2023-04-23T11:53:10.626Z,99601.94
2023-04-23T11:55:38.750Z,99591.59
2023-04-23T11:58:07.260Z,99592.50
2023-04-23T12:00:36.399Z,99593.81
2023-04-23T12:03:08.640Z,99579.63
2023-04-23T12:05:40.822Z,99577.69
2023-04-23T12:08:18.101Z,99577.28
2023-04-23T12:11:02.870Z,99573.38
2023-04-23T12:13:33.995Z,99572.94
2023-04-23T12:16:04.858Z,99574.25
2023-04-23T12:18:38.162Z,99574.66
2023-04-23T12:21:13.713Z,99572.50
2023-04-23T12:23:44.933Z,99560.13
2023-04-23T12:26:15.550Z,99557.66
2023-04-23T12:28:59.174Z,99561.34
2023-04-23T12:31:29.503Z,99551.63
2023-04-23T12:34:05.640Z,99546.22
2023-04-23T12:36:35.367Z,99543.16
2023-04-23T12:39:33.861Z,99534.34
2023-04-23T12:42:08.225Z,99536.44
2023-04-23T12:44:37.864Z,99532.91
2023-04-23T12:47:10.294Z,99531.84
2023-04-23T12:49:41.106Z,99527.78
2023-04-23T12:52:12.132Z,99539.75
2023-04-23T12:54:41.410Z,99528.88
2023-04-23T12:57:12.670Z,99525.97
2023-04-23T12:59:40.629Z,99525.63
2023-04-23T13:02:08.491Z,99530.94
2023-04-23T13:04:37.994Z,99530.28
2023-04-23T13:07:05.757Z,99517.50
2023-04-23T13:09:36.228Z,99512.59
2023-04-23T13:12:03.917Z,99520.84
2023-04-23T13:14:38.122Z,99514.47
2023-04-23T13:17:08.441Z,99515.38
2023-04-23T13:19:37.681Z,99516.19
2023-04-23T13:22:05.348Z,99514.06
2023-04-23T13:24:33.082Z,99511.69
2023-04-23T13:27:01.608Z,99505.34
2023-04-23T13:29:29.604Z,99506.28
2023-04-23T13:31:58.545Z,99506.72
2023-04-23T13:34:26.044Z,99510.41
2023-04-23T13:36:53.644Z,99506.28
2023-04-23T13:39:21.481Z,99504.13
2023-04-23T13:41:59.108Z,99501.34
2023-04-23T13:44:34.289Z,99505.84
2023-04-23T13:47:02.067Z,99499.88
2023-04-23T13:49:29.627Z,99497.13
2023-04-23T13:52:04.417Z,99498.81
2023-04-23T13:54:32.312Z,99489.88
2023-04-23T13:57:01.231Z,99493.06
2023-04-23T13:59:28.909Z,99483.72
2023-04-23T14:01:56.391Z,99473.63
2023-04-23T14:04:24.314Z,99473.75
2023-04-23T14:06:52.318Z,99470.28
2023-04-23T14:09:19.755Z,99471.22
2023-04-23T14:11:47.453Z,99470.88
2023-04-23T14:14:14.932Z,99471.44
2023-04-23T14:16:43.509Z,99469.28
2023-04-23T14:19:12.193Z,99462.56
2023-04-23T14:21:40.652Z,99456.78
2023-04-23T14:24:33.503Z,99458.28
2023-04-23T14:27:03.722Z,99457.94
2023-04-23T14:29:42.462Z,99453.03
2023-04-23T14:32:12.547Z,99456.06
2023-04-23T14:34:40.068Z,99461.38
2023-04-23T14:37:07.757Z,99452.84
2023-04-23T14:39:35.357Z,99457.47
2023-04-23T14:42:03.111Z,99447.44
2023-04-23T14:44:30.623Z,99450.50
2023-04-23T14:46:59.033Z,99449.28
2023-04-23T14:49:27.160Z,99458.53
2023-04-23T14:51:54.811Z,99451.66
2023-04-23T14:54:23.488Z,99445.53
2023-04-23T14:56:54.163Z,99449.88
2023-04-23T14:59:23.041Z,99440.69
2023-04-23T15:01:50.901Z,99442.59
2023-04-23T15:04:18.663Z,99445.97
2023-04-23T15:06:46.264Z,99439.63
2023-04-23T15:09:13.776Z,99439.88
2023-04-23T15:11:43.337Z,99439.72
2023-04-23T15:14:32.945Z,99443.19
2023-04-23T15:17:01.061Z,99444.28
2023-04-23T15:19:31.352Z,99438.19
2023-04-23T15:21:59.007Z,99443.38
2023-04-23T15:24:26.649Z,99441.28
2023-04-23T15:26:55.133Z,99436.53
2023-04-23T15:29:24.526Z,99435.84
2023-04-23T15:31:57.912Z,99438.38
2023-04-23T15:34:25.616Z,99440.31
2023-04-23T15:36:53.129Z,99440.66
2023-04-23T15:39:21.502Z,99448.22
2023-04-23T15:41:50.950Z,99436.16
2023-04-23T15:44:19.065Z,99439.72
2023-04-23T15:46:46.629Z,99438.97
2023-04-23T15:49:14.206Z,99440.63
2023-04-23T15:51:41.855Z,99431.09
2023-04-23T15:54:09.673Z,99428.50
2023-04-23T15:56:37.738Z,99425.53
2023-04-23T15:59:06.045Z,99426.97
2023-04-23T16:01:33.782Z,99417.25
2023-04-23T16:04:10.512Z,99415.81
2023-04-23T16:06:39.595Z,99419.03
2023-04-23T16:09:09.628Z,99416.03
2023-04-23T16:11:38.873Z,99413.47
2023-04-23T16:14:09.622Z,99413.50
2023-04-23T16:16:38.771Z,99415.81
2023-04-23T16:19:06.534Z,99408.25
2023-04-23T16:21:34.126Z,99411.31
2023-04-23T16:24:01.600Z,99410.81
2023-04-23T16:26:32.025Z,99406.50
2023-04-23T16:29:11.302Z,99404.69
2023-04-23T16:31:46.186Z,99409.69
2023-04-23T16:34:13.849Z,99404.69
2023-04-23T16:36:42.960Z,99411.13
2023-04-23T16:39:35.506Z,99405.72
2023-04-23T16:42:06.608Z,99404.91
2023-04-23T16:44:34.992Z,99408.22
2023-04-23T16:47:02.839Z,99407.47
2023-04-23T16:49:31.344Z,99411.25
2023-04-23T16:52:01.656Z,99411.53
2023-04-23T16:54:29.860Z,99411.06
2023-04-23T16:56:58.527Z,99410.97
2023-04-23T16:59:26.182Z,99411.94
2023-04-23T17:01:53.756Z,99415.31
2023-04-23T17:04:21.434Z,99423.16
2023-04-23T17:06:49.376Z,99415.06
2023-04-23T17:09:16.891Z,99416.06
2023-04-23T17:11:46.235Z,99421.31
2023-04-23T17:14:21.019Z,99415.78
2023-04-23T17:16:54.567Z,99414.09
2023-04-23T17:19:24.657Z,99415.56
2023-04-23T17:21:52.248Z,99425.00
2023-04-23T17:24:30.563Z,99425.75
2023-04-23T17:27:05.735Z,99421.88
2023-04-23T17:29:38.054Z,99416.69
2023-04-23T17:32:08.430Z,99426.16
2023-04-23T17:35:09.462Z,99423.25
2023-04-23T17:37:41.604Z,99416.56
2023-04-23T17:40:12.684Z,99422.72
2023-04-23T17:42:50.825Z,99425.94
2023-04-23T17:45:18.864Z,99429.25
2023-04-23T17:47:47.850Z,99431.47
2023-04-23T17:50:17.634Z,99439.28
2023-04-23T17:52:51.830Z,99437.19
2023-04-23T17:55:26.544Z,99439.63
2023-04-23T17:57:54.908Z,99446.75
2023-04-23T18:00:26.190Z,99449.69
2023-04-23T18:02:56.546Z,99451.94
2023-04-23T18:05:27.512Z,99456.06
2023-04-23T18:07:59.552Z,99453.78
2023-04-23T18:10:29.452Z,99453.84
2023-04-23T18:13:07.274Z,99465.97
2023-04-23T18:15:42.447Z,99458.25
2023-04-23T18:18:18.605Z,99453.22
2023-04-23T18:20:47.759Z,99452.06
2023-04-23T18:23:17.238Z,99453.78
2023-04-23T18:25:47.716Z,99454.19
2023-04-23T18:28:16.316Z,99451.47
2023-04-23T18:30:44.857Z,99458.63
2023-04-23T18:33:36.369Z,99457.34
2023-04-23T18:36:47.226Z,99455.63
2023-04-23T18:39:16.696Z,99448.31
2023-04-23T18:41:49.878Z,99465.22
2023-04-23T18:44:19.624Z,99462.16
2023-04-23T18:46:48.755Z,99459.59
2023-04-23T18:49:55.910Z,99461.22
2023-04-23T18:52:36.978Z,99451.84
2023-04-23T18:55:06.127Z,99462.66
2023-04-23T18:57:34.179Z,99460.63
2023-04-23T19:00:02.994Z,99464.97
2023-04-23T19:02:35.558Z,99459.53
2023-04-23T19:05:05.946Z,99460.81
2023-04-23T19:07:37.277Z,99468.41
2023-04-23T19:10:16.403Z,99473.19
2023-04-23T19:12:45.976Z,99469.50
2023-04-23T19:15:16.587Z,99465.38
2023-04-23T19:17:47.986Z,99462.88
2023-04-23T19:20:18.889Z,99474.50
2023-04-23T19:22:53.640Z,99469.06
2023-04-23T19:25:24.914Z,99473.03
2023-04-23T19:27:56.222Z,99469.38
2023-04-23T19:30:26.792Z,99470.16
2023-04-23T19:32:56.547Z,99465.34
2023-04-23T19:35:24.203Z,99469.19
2023-04-23T19:37:53.834Z,99465.66
2023-04-23T19:40:23.916Z,99473.03
2023-04-23T19:42:52.156Z,99471.41
2023-04-23T19:45:22.110Z,99474.66
2023-04-23T19:47:52.439Z,99459.63
2023-04-23T19:50:22.570Z,99462.81
2023-04-23T19:52:50.542Z,99466.34
2023-04-23T19:55:22.613Z,99462.53
2023-04-23T19:57:51.807Z,99454.34
2023-04-23T20:00:21.507Z,99452.94
2023-04-23T20:02:49.897Z,99464.81
2023-04-23T20:05:26.257Z,99462.53
2023-04-23T20:07:57.519Z,99465.81
2023-04-23T20:10:30.715Z,99461.94
2023-04-23T20:12:59.980Z,99471.94
2023-04-23T20:15:32.598Z,99474.38
2023-04-23T20:18:04.973Z,99465.53
2023-04-23T20:20:35.159Z,99474.59
2023-04-23T20:23:08.432Z,99466.63
2023-04-23T20:25:36.614Z,99471.69
2023-04-23T20:28:09.893Z,99471.50
2023-04-23T20:30:41.630Z,99473.28
2023-04-23T20:33:10.834Z,99468.34
2023-04-23T20:35:43.021Z,99473.00
2023-04-23T20:38:13.270Z,99470.59
2023-04-23T20:40:43.839Z,99473.59
2023-04-23T20:43:15.523Z,99476.38
2023-04-23T20:45:43.211Z,99467.63
2023-04-23T20:48:10.803Z,99469.38
2023-04-23T20:50:38.356Z,99466.34
2023-04-23T20:53:06.375Z,99469.56
2023-04-23T20:55:36.938Z,99470.47
2023-04-23T20:58:04.556Z,99467.25
2023-04-23T21:00:32.767Z,99466.75
2023-04-23T21:03:01.881Z,99472.91
2023-04-23T21:05:29.975Z,99472.63
2023-04-23T21:07:59.126Z,99470.84
2023-04-23T21:10:26.732Z,99470.09
2023-04-23T21:12:54.413Z,99477.13
2023-04-23T21:15:24.240Z,99472.53
2023-04-23T21:17:52.792Z,99469.19
2023-04-23T21:20:20.845Z,99469.94
2023-04-23T21:22:48.232Z,99477.84
2023-04-23T21:25:16.445Z,99473.84
2023-04-23T21:27:46.052Z,99468.78
2023-04-23T21:30:42.941Z,99477.81
2023-04-23T21:33:10.610Z,99474.59
2023-04-23T21:35:38.070Z,99474.66
2023-04-23T21:38:06.356Z,99471.03
2023-04-23T21:40:34.555Z,99470.44
2023-04-23T21:43:02.843Z,99466.44
2023-04-23T21:45:31.048Z,99472.97
2023-04-23T21:47:59.085Z,99474.69
2023-04-23T21:50:29.696Z,99471.78
2023-04-23T21:52:59.495Z,99481.06
2023-04-23T21:55:30.879Z,99476.41
2023-04-23T21:58:09.919Z,99477.16
2023-04-23T22:00:44.702Z,99475.81
2023-04-23T22:03:15.417Z,99474.03
2023-04-23T22:05:49.464Z,99476.75
2023-04-23T22:08:17.268Z,99475.34
2023-04-23T22:10:45.294Z,99472.88
2023-04-23T22:13:14.330Z,99479.88
2023-04-23T22:15:42.347Z,99484.34
2023-04-23T22:18:12.187Z,99461.16
2023-04-23T22:20:39.853Z,99455.06
2023-04-23T22:23:07.379Z,99452.34
2023-04-23T22:25:34.808Z,99456.84
2023-04-23T22:28:03.578Z,99459.41
2023-04-23T22:30:31.183Z,99464.75
2023-04-23T22:33:00.060Z,99475.59
2023-04-23T22:35:27.795Z,99471.97
2023-04-23T22:37:55.456Z,99471.09
2023-04-23T22:40:23.167Z,99474.16
2023-04-23T22:42:50.681Z,99474.63
2023-04-23T22:45:18.356Z,99474.34
2023-04-23T22:47:45.877Z,99476.50
2023-04-23T22:50:13.591Z,99484.38
2023-04-23T22:52:41.442Z,99478.03
2023-04-23T22:55:09.514Z,99482.50
2023-04-23T22:57:37.080Z,99480.06
2023-04-23T23:00:07.710Z,99477.59
2023-04-23T23:02:35.368Z,99477.41
2023-04-23T23:05:02.926Z,99468.63
2023-04-23T23:07:30.519Z,99469.72
2023-04-23T23:09:57.983Z,99481.75
2023-04-23T23:12:25.438Z,99472.50
2023-04-23T23:14:52.972Z,99471.09
2023-04-23T23:17:20.666Z,99463.38
2023-04-23T23:19:48.127Z,99458.44
2023-04-23T23:22:15.678Z,99456.59
2023-04-23T23:24:43.093Z,99454.28
2023-04-23T23:27:11.418Z,99457.81
2023-04-23T23:29:38.871Z,99466.94
2023-04-23T23:32:06.667Z,99464.63
2023-04-23T23:34:34.097Z,99456.28
2023-04-23T23:37:01.517Z,99445.00
2023-04-23T23:39:28.962Z,99445.00
2023-04-23T23:41:58.375Z,99445.19
2023-04-23T23:44:27.077Z,99443.31
2023-04-23T23:46:54.685Z,99434.22
2023-04-23T23:49:22.351Z,99429.59
2023-04-23T23:51:49.886Z,99421.88
2023-04-23T23:54:17.376Z,99426.34
2023-04-23T23:56:44.802Z,99431.88
2023-04-23T23:59:12.327Z,99430.63
